Time;durP1;ratioP1;P1;durP2;ratioP2;P2;SDS_P1;SDS_P2;PMS_P1;PMS_P2;Temp;Humidity;BMP_temperature;BMP_pressure;BME280_temperature;BME280_humidity;BME280_pressure;Samples;Min_cycle;Max_cycle;Signal;HPM_P1;HPM_P2
2021/05/24 00:00:51;;;;;;;14.05;4.07;;;;;;;16.34;74.48;95385.69;5065654;28;20044;-69
2021/05/24 00:03:18;;;;;;;10.05;4.15;;;;;;;16.33;74.18;95399.84;5065970;28;20036;-68
2021/05/24 00:05:45;;;;;;;9.15;4.22;;;;;;;16.25;74.21;95404.53;5067106;28;20052;-69
2021/05/24 00:08:12;;;;;;;7.15;4.07;;;;;;;16.29;74.71;95398.78;5065263;28;20105;-69
2021/05/24 00:10:41;;;;;;;9.60;4.53;;;;;;;16.06;76.25;95392.84;5064539;28;20601;-69
2021/05/24 00:13:10;;;;;;;4.63;4.13;;;;;;;16.24;74.84;95402.97;5065314;28;20056;-69
2021/05/24 00:15:49;;;;;;;8.27;5.60;;;;;;;16.16;75.42;95382.41;5065628;28;20529;-68
2021/05/24 00:18:17;;;;;;;6.20;4.20;;;;;;;16.28;74.35;95391.94;5066914;28;20420;-69
2021/05/24 00:20:59;;;;;;;6.28;4.65;;;;;;;16.11;74.43;95400.75;5063974;28;20041;-68
2021/05/24 00:23:27;;;;;;;7.63;4.20;;;;;;;16.13;74.35;95390.00;5066416;28;20551;-68
2021/05/24 00:25:54;;;;;;;9.10;4.53;;;;;;;16.17;75.27;95402.41;5065390;28;20502;-69
2021/05/24 00:28:21;;;;;;;9.30;4.85;;;;;;;16.12;74.43;95410.25;5064238;28;20051;-68
2021/05/24 00:30:50;;;;;;;6.45;5.40;;;;;;;16.13;75.03;95411.81;5065033;28;20060;-69
2021/05/24 00:33:18;;;;;;;5.53;4.55;;;;;;;15.86;76.68;95410.03;5065448;28;20119;-69
2021/05/24 00:35:45;;;;;;;6.78;4.32;;;;;;;15.95;75.40;95430.59;5063430;28;20056;-69
2021/05/24 00:38:12;;;;;;;10.95;4.93;;;;;;;15.86;75.76;95423.16;5066161;28;20041;-68
2021/05/24 00:40:40;;;;;;;6.18;4.03;;;;;;;15.75;77.63;95415.44;5062801;28;20036;-69
2021/05/24 00:43:08;;;;;;;8.23;4.40;;;;;;;15.77;76.90;95429.91;5064456;28;20040;-69
2021/05/24 00:45:35;;;;;;;9.55;4.20;;;;;;;15.84;75.57;95435.72;5065440;28;20036;-68
2021/05/24 00:48:03;;;;;;;6.88;4.10;;;;;;;15.83;75.33;95443.88;5065363;28;20033;-68
2021/05/24 00:50:30;;;;;;;11.10;5.28;;;;;;;15.88;75.30;95443.13;5062618;28;20084;-69
2021/05/24 00:52:57;;;;;;;6.25;4.32;;;;;;;15.89;75.05;95442.09;5064990;28;20094;-69
2021/05/24 00:55:24;;;;;;;12.20;4.50;;;;;;;15.89;76.09;95447.34;5064949;28;20056;-68
2021/05/24 00:57:51;;;;;;;11.93;4.50;;;;;;;15.86;75.89;95449.44;5066358;28;20050;-69
2021/05/24 01:00:30;;;;;;;7.85;4.03;;;;;;;15.97;75.65;95446.88;5066757;28;20036;-69
2021/05/24 01:02:58;;;;;;;7.03;4.97;;;;;;;15.93;76.87;95453.69;5064860;28;20050;-69
2021/05/24 01:05:25;;;;;;;9.48;4.03;;;;;;;15.90;76.98;95446.28;5064662;28;20041;-68
2021/05/24 01:07:52;;;;;;;6.93;5.15;;;;;;;15.97;76.26;95445.06;5066168;28;20063;-68
2021/05/24 01:10:19;;;;;;;10.02;4.00;;;;;;;16.05;75.69;95454.31;5063542;28;20107;-68
2021/05/24 01:12:46;;;;;;;8.35;4.10;;;;;;;16.14;74.81;95459.91;5063041;28;20051;-69
2021/05/24 01:15:13;;;;;;;7.03;4.15;;;;;;;16.00;75.04;95454.28;5064296;28;20512;-69
2021/05/24 01:17:41;;;;;;;8.98;4.70;;;;;;;16.07;74.42;95460.13;5047238;28;20044;-68
2021/05/24 01:20:08;;;;;;;6.70;4.50;;;;;;;15.98;75.23;95459.78;5064421;28;20480;-68
2021/05/24 01:22:37;;;;;;;8.70;4.28;;;;;;;15.91;75.54;95466.28;5064017;28;20047;-69
2021/05/24 01:25:06;;;;;;;11.23;5.88;;;;;;;15.68;76.78;95471.56;5063940;28;20111;-69
2021/05/24 01:27:33;;;;;;;9.15;5.50;;;;;;;15.52;78.11;95482.13;5063340;28;20060;-68
2021/05/24 01:30:01;;;;;;;6.25;5.22;;;;;;;15.48;78.34;95485.25;5066014;28;20052;-68
2021/05/24 01:32:28;;;;;;;12.70;7.03;;;;;;;15.40;78.88;95493.56;5063674;28;20040;-69
2021/05/24 01:34:55;;;;;;;8.48;5.00;;;;;;;15.19;78.71;95475.97;5063428;28;20068;-69
2021/05/24 01:37:22;;;;;;;8.57;5.05;;;;;;;15.14;78.51;95489.81;5065937;28;20055;-69
2021/05/24 01:39:48;;;;;;;9.95;5.05;;;;;;;15.19;78.33;95496.97;5064843;28;20403;-68
2021/05/24 01:42:15;;;;;;;7.35;4.70;;;;;;;15.09;78.68;95498.44;5063567;28;20041;-69
2021/05/24 01:44:43;;;;;;;5.63;4.72;;;;;;;14.93;80.72;95499.25;5063371;28;20045;-68
2021/05/24 01:47:09;;;;;;;9.65;5.75;;;;;;;14.83;81.05;95499.09;5044713;28;20044;-68
2021/05/24 01:49:37;;;;;;;8.60;5.53;;;;;;;14.68;82.16;95500.47;5064482;28;20139;-69
2021/05/24 01:52:06;;;;;;;8.85;4.95;;;;;;;14.79;81.02;95500.63;5062642;28;20032;-68
2021/05/24 01:54:33;;;;;;;12.07;5.40;;;;;;;14.76;80.34;95499.28;5064325;28;20386;-69
2021/05/24 01:57:00;;;;;;;8.80;5.30;;;;;;;14.80;79.95;95494.34;5046133;28;20289;-68
2021/05/24 01:59:27;;;;;;;9.95;5.18;;;;;;;14.84;79.73;95490.22;5067342;28;20052;-68
2021/05/24 02:01:54;;;;;;;8.00;4.90;;;;;;;14.87;79.20;95494.97;5046873;28;20066;-69
2021/05/24 02:04:20;;;;;;;7.53;4.90;;;;;;;14.81;80.13;95495.94;5067880;28;20048;-69
2021/05/24 02:06:47;;;;;;;8.90;4.95;;;;;;;14.65;81.13;95497.53;5059357;28;20548;-69
2021/05/24 02:09:14;;;;;;;7.57;4.78;;;;;;;14.67;81.32;95487.59;5059428;28;20043;-68
2021/05/24 02:11:41;;;;;;;7.80;5.38;;;;;;;14.65;80.43;95487.84;5048917;28;20036;-68
2021/05/24 02:14:09;;;;;;;10.13;5.40;;;;;;;14.65;80.26;95503.56;5044339;28;20052;-68
2021/05/24 02:16:47;;;;;;;14.65;5.38;;;;;;;14.48;81.88;95497.53;5068342;28;20547;-68
2021/05/24 02:19:19;;;;;;;6.18;4.57;;;;;;;14.49;80.54;95504.34;5064241;28;20037;-69
2021/05/24 02:21:45;;;;;;;9.02;5.10;;;;;;;14.52;80.04;95514.38;5066474;28;20040;-68
2021/05/24 02:24:13;;;;;;;7.40;4.45;;;;;;;14.36;80.14;95515.94;5040042;28;20124;-69
2021/05/24 02:26:42;;;;;;;6.60;5.07;;;;;;;14.22;80.95;95520.69;5067004;28;20052;-68
2021/05/24 02:29:10;;;;;;;17.13;5.90;;;;;;;14.22;81.37;95525.94;5067900;28;20036;-69
2021/05/24 02:31:39;;;;;;;10.10;4.85;;;;;;;14.19;81.63;95505.47;5060735;28;20502;-68
2021/05/24 02:34:07;;;;;;;8.00;4.85;;;;;;;14.29;80.84;95518.72;5066262;28;20086;-68
2021/05/24 02:36:35;;;;;;;8.18;4.72;;;;;;;14.18;81.04;95514.34;5068106;28;20126;-68
2021/05/24 02:39:08;;;;;;;9.52;4.78;;;;;;;14.23;80.40;95511.81;5056236;28;20047;-69
2021/05/24 02:41:37;;;;;;;7.10;4.55;;;;;;;14.38;79.36;95518.31;5064693;28;20094;-68
2021/05/24 02:44:09;;;;;;;12.95;6.93;;;;;;;14.42;79.73;95525.50;5059972;28;20044;-69
2021/05/24 02:46:37;;;;;;;8.70;4.15;;;;;;;14.29;79.32;95526.56;5050416;28;20036;-68
2021/05/24 02:49:04;;;;;;;14.10;4.00;;;;;;;14.09;79.76;95536.72;5066514;28;20029;-68
2021/05/24 02:51:31;;;;;;;10.82;4.28;;;;;;;14.13;79.65;95537.81;5058296;28;20984;-69
2021/05/24 02:53:58;;;;;;;10.07;3.75;;;;;;;14.20;80.31;95546.31;5066692;28;20111;-68
2021/05/24 02:56:25;;;;;;;12.95;3.97;;;;;;;14.12;80.65;95541.50;5067345;28;20051;-69
2021/05/24 02:58:52;;;;;;;13.57;4.00;;;;;;;14.15;81.07;95551.47;5067279;28;20113;-68
2021/05/24 03:01:20;;;;;;;13.57;4.90;;;;;;;14.08;81.03;95561.31;5059224;28;20060;-68
2021/05/24 03:03:53;;;;;;;14.85;4.35;;;;;;;14.07;81.42;95570.19;5053567;28;21456;-68
2021/05/24 03:06:21;;;;;;;9.38;3.85;;;;;;;14.12;81.39;95586.81;5066003;28;20131;-69
2021/05/24 03:08:49;;;;;;;7.10;3.90;;;;;;;14.22;81.07;95599.28;5067241;28;20072;-68
2021/05/24 03:11:21;;;;;;;18.48;4.88;;;;;;;14.13;81.76;95591.03;5066289;28;20170;-68
2021/05/24 03:13:49;;;;;;;11.65;3.78;;;;;;;14.13;82.05;95590.22;5031076;28;20143;-69
2021/05/24 03:16:17;;;;;;;14.65;3.80;;;;;;;14.08;82.88;95596.16;5067103;28;20523;-69
2021/05/24 03:18:45;;;;;;;11.50;4.97;;;;;;;14.12;82.79;95593.88;5065167;28;20044;-68
2021/05/24 03:21:12;;;;;;;10.63;4.28;;;;;;;14.00;83.43;95580.03;5037820;28;20449;-69
2021/05/24 03:23:39;;;;;;;12.93;4.55;;;;;;;14.03;83.68;95590.03;5043721;28;20048;-68
2021/05/24 03:26:05;;;;;;;14.38;4.25;;;;;;;14.02;84.22;95604.16;5059110;28;20144;-68
2021/05/24 03:28:32;;;;;;;11.23;4.35;;;;;;;13.96;85.15;95604.06;5045924;28;20047;-69
2021/05/24 03:30:59;;;;;;;14.30;4.88;;;;;;;13.91;85.93;95614.44;5051272;28;20049;-68
2021/05/24 03:33:26;;;;;;;13.30;5.25;;;;;;;14.01;84.91;95623.50;5044673;28;20047;-68
2021/05/24 03:35:53;;;;;;;10.15;4.20;;;;;;;14.04;85.32;95628.28;5064372;28;20048;-68
2021/05/24 03:38:19;;;;;;;11.73;4.28;;;;;;;14.07;85.03;95627.81;5061630;28;20041;-69
2021/05/24 03:40:47;;;;;;;11.95;3.78;;;;;;;13.78;87.52;95643.50;5058329;28;20681;-68
2021/05/24 03:43:13;;;;;;;11.98;5.03;;;;;;;13.83;87.78;95648.84;5066493;28;20625;-69
2021/05/24 03:45:41;;;;;;;16.15;4.97;;;;;;;14.01;86.46;95644.47;5059806;28;20032;-68
2021/05/24 03:48:08;;;;;;;9.82;4.60;;;;;;;14.09;86.90;95646.72;5058012;28;20430;-68
2021/05/24 03:50:35;;;;;;;14.40;4.50;;;;;;;13.65;89.27;95630.66;5031374;28;20140;-68
2021/05/24 03:53:02;;;;;;;21.58;4.78;;;;;;;13.52;91.43;95658.69;5051458;28;20044;-68
2021/05/24 03:55:29;;;;;;;15.15;4.60;;;;;;;13.62;90.82;95657.31;5049314;28;20055;-68
2021/05/24 03:57:55;;;;;;;13.32;4.90;;;;;;;13.73;89.98;95664.34;5032137;28;20111;-68
2021/05/24 04:00:23;;;;;;;17.08;4.38;;;;;;;13.91;88.81;95669.41;5066486;28;20040;-68
2021/05/24 04:02:50;;;;;;;7.45;4.05;;;;;;;14.10;88.45;95664.03;5065475;28;20056;-68
2021/05/24 04:07:49;;;;;;;14.65;4.25;;;;;;;14.41;87.11;95669.84;5047553;28;20147;-68
2021/05/24 04:10:18;;;;;;;13.30;3.90;;;;;;;14.47;88.30;95684.63;5065803;28;20048;-68
2021/05/24 04:12:45;;;;;;;11.63;4.88;;;;;;;14.44;88.15;95674.63;5063258;28;20066;-68
2021/05/24 04:15:14;;;;;;;11.60;4.45;;;;;;;14.44;88.10;95675.44;5065909;28;20048;-68
2021/05/24 04:17:42;;;;;;;12.05;5.22;;;;;;;14.47;88.14;95679.41;5066291;28;20043;-68
2021/05/24 04:20:11;;;;;;;13.70;4.07;;;;;;;14.54;88.04;95691.31;5063753;28;20462;-68
2021/05/24 04:22:40;;;;;;;12.00;3.90;;;;;;;14.69;86.71;95688.22;5064479;28;20146;-68
2021/05/24 04:25:13;;;;;;;14.43;4.80;;;;;;;14.90;86.06;95699.06;5064071;28;20048;-67
2021/05/24 04:27:40;;;;;;;15.57;4.13;;;;;;;14.96;85.92;95692.84;5062352;28;20040;-67
2021/05/24 04:30:09;;;;;;;11.93;4.30;;;;;;;15.06;85.18;95693.03;5064662;28;20048;-68
2021/05/24 04:32:36;;;;;;;15.05;3.78;;;;;;;15.21;84.48;95689.84;5062502;28;20063;-67
2021/05/24 04:35:05;;;;;;;13.60;3.42;;;;;;;15.22;84.72;95695.91;5029577;28;20041;-67
2021/05/24 04:37:32;;;;;;;13.23;4.03;;;;;;;15.19;85.40;95697.16;5065018;28;20098;-67
2021/05/24 04:39:59;;;;;;;9.32;4.57;;;;;;;15.18;84.93;95710.53;5065327;28;20062;-67
2021/05/24 04:42:26;;;;;;;13.77;3.45;;;;;;;15.28;84.71;95705.44;5061024;28;20114;-67
2021/05/24 04:44:53;;;;;;;8.93;3.70;;;;;;;15.28;84.18;95710.69;5066864;28;20049;-67
2021/05/24 04:47:20;;;;;;;9.80;3.97;;;;;;;15.36;83.88;95707.69;5063884;28;20055;-67
2021/05/24 04:49:50;;;;;;;8.43;3.10;;;;;;;15.34;83.94;95717.63;5065284;28;20044;-67
2021/05/24 04:52:18;;;;;;;14.70;3.85;;;;;;;15.33;83.78;95708.16;5063382;28;21200;-68
2021/05/24 04:54:46;;;;;;;16.10;3.78;;;;;;;15.42;84.22;95714.59;5063149;28;20049;-67
2021/05/24 04:57:13;;;;;;;10.52;3.90;;;;;;;15.48;84.35;95731.22;5044161;28;20128;-67
2021/05/24 04:59:41;;;;;;;13.60;6.10;;;;;;;15.54;84.63;95734.69;5063275;28;20048;-68
2021/05/24 05:02:08;;;;;;;23.02;4.68;;;;;;;15.51;84.27;95727.31;5063104;28;20110;-69
2021/05/24 05:04:36;;;;;;;16.40;4.95;;;;;;;15.66;84.39;95735.41;5046196;28;20068;-68
2021/05/24 05:07:03;;;;;;;20.25;4.32;;;;;;;15.72;85.04;95734.47;5064934;28;20537;-69
2021/05/24 05:09:30;;;;;;;20.85;4.15;;;;;;;15.82;83.86;95741.72;5028678;28;20510;-69
2021/05/24 05:11:57;;;;;;;11.95;4.07;;;;;;;15.94;83.52;95749.50;5063644;28;22059;-68
2021/05/24 05:14:25;;;;;;;20.00;3.55;;;;;;;15.98;83.12;95771.63;5063632;28;20047;-68
2021/05/24 05:16:53;;;;;;;8.65;3.50;;;;;;;15.96;82.49;95768.44;5046228;28;20044;-68
2021/05/24 05:19:21;;;;;;;12.45;3.83;;;;;;;15.97;82.48;95751.63;5027720;28;20080;-68
2021/05/24 05:21:49;;;;;;;7.03;3.13;;;;;;;16.20;82.48;95767.19;5044282;28;20067;-68
2021/05/24 05:24:17;;;;;;;13.05;3.40;;;;;;;16.27;81.66;95766.22;5043902;28;20135;-68
2021/05/24 05:26:44;;;;;;;12.60;3.53;;;;;;;16.37;81.14;95774.25;5060601;28;20130;-68
2021/05/24 05:29:11;;;;;;;11.10;3.75;;;;;;;16.41;81.78;95765.63;5062344;28;20585;-69
2021/05/24 05:31:38;;;;;;;13.40;4.72;;;;;;;16.69;80.96;95770.91;5043936;28;20052;-68
2021/05/24 05:34:05;;;;;;;11.15;3.33;;;;;;;16.84;79.55;95783.50;5045469;28;20052;-68
2021/05/24 05:36:34;;;;;;;11.65;4.57;;;;;;;16.85;80.43;95770.06;5065228;28;20678;-68
2021/05/24 05:39:01;;;;;;;12.70;4.18;;;;;;;16.97;78.94;95783.88;5045038;28;20421;-68
2021/05/24 05:41:28;;;;;;;10.23;4.15;;;;;;;17.06;79.00;95771.06;5060909;28;20057;-67
2021/05/24 05:43:54;;;;;;;8.45;3.38;;;;;;;17.21;76.85;95775.69;5063747;28;20109;-67
2021/05/24 05:46:21;;;;;;;14.77;5.20;;;;;;;17.24;75.70;95777.81;5064599;28;20028;-67
2021/05/24 05:48:48;;;;;;;10.95;3.80;;;;;;;17.30;75.16;95776.81;5028799;28;20146;-68
2021/05/24 05:51:15;;;;;;;9.07;3.38;;;;;;;17.25;74.42;95758.38;5062149;28;20064;-68
2021/05/24 05:53:42;;;;;;;11.60;4.43;;;;;;;17.38;75.60;95768.47;5063414;28;20041;-68
2021/05/24 05:56:09;;;;;;;10.05;4.32;;;;;;;17.42;74.96;95778.50;5063136;28;20062;-68
2021/05/24 05:58:36;;;;;;;8.27;4.45;;;;;;;17.57;74.58;95791.78;5064481;28;20029;-68
2021/05/24 06:01:05;;;;;;;14.27;3.75;;;;;;;17.54;75.79;95794.94;5061336;28;20859;-68
2021/05/24 06:03:33;;;;;;;12.02;3.92;;;;;;;17.66;76.01;95813.19;5061296;28;20074;-68
2021/05/24 06:06:01;;;;;;;9.55;3.20;;;;;;;17.72;76.54;95810.38;5045992;28;20445;-68
2021/05/24 06:08:28;;;;;;;6.35;3.30;;;;;;;17.70;75.22;95811.66;5062203;28;20068;-68
2021/05/24 06:10:57;;;;;;;8.75;3.35;;;;;;;17.61;75.41;95787.63;5061951;28;20042;-67
2021/05/24 06:13:25;;;;;;;12.95;3.85;;;;;;;17.73;75.35;95796.13;5046212;28;20041;-68
2021/05/24 06:15:53;;;;;;;13.35;4.15;;;;;;;17.93;76.13;95786.81;5061092;28;20044;-68
2021/05/24 06:18:21;;;;;;;9.00;3.15;;;;;;;18.17;75.40;95794.34;5029528;28;20063;-68
2021/05/24 06:20:48;;;;;;;10.95;2.92;;;;;;;18.31;73.10;95806.84;5044933;28;20423;-68
2021/05/24 06:23:16;;;;;;;7.85;2.97;;;;;;;18.25;72.59;95809.69;5064963;28;20160;-68
2021/05/24 06:25:44;;;;;;;10.43;2.40;;;;;;;18.25;72.59;95812.31;5064484;28;20056;-68
2021/05/24 06:28:12;;;;;;;12.63;2.65;;;;;;;18.33;74.04;95806.56;5062528;28;20123;-68
2021/05/24 06:30:40;;;;;;;6.20;2.30;;;;;;;18.21;73.06;95800.72;5063409;28;20036;-66
2021/05/24 06:33:07;;;;;;;9.65;3.00;;;;;;;18.43;73.73;95809.25;5063034;28;20399;-68
2021/05/24 06:35:34;;;;;;;17.98;2.88;;;;;;;18.42;72.73;95805.03;5046142;28;20103;-68
2021/05/24 06:38:02;;;;;;;8.05;2.63;;;;;;;18.56;71.86;95807.19;5063163;28;20036;-68
2021/05/24 06:40:31;;;;;;;10.68;2.95;;;;;;;18.78;71.32;95799.91;5044502;28;20094;-68
2021/05/24 06:42:58;;;;;;;9.10;2.35;;;;;;;18.94;70.39;95797.34;5047001;28;20109;-68
2021/05/24 06:45:25;;;;;;;7.38;2.33;;;;;;;19.17;69.71;95804.78;5063049;28;20049;-68
2021/05/24 06:47:52;;;;;;;10.98;2.30;;;;;;;19.31;69.64;95797.16;5044104;28;20806;-68
2021/05/24 06:50:19;;;;;;;7.90;2.28;;;;;;;19.42;68.37;95795.31;5032242;28;20127;-68
2021/05/24 06:52:46;;;;;;;9.95;1.88;;;;;;;19.49;67.76;95793.19;5066281;28;20126;-68
2021/05/24 06:55:15;;;;;;;7.95;2.10;;;;;;;19.48;67.15;95797.69;5068654;28;20059;-68
2021/05/24 06:57:42;;;;;;;6.80;1.73;;;;;;;19.40;66.83;95792.16;5067390;28;20119;-67
2021/05/24 07:00:11;;;;;;;7.05;2.08;;;;;;;19.31;67.02;95780.53;5050055;28;20074;-67
2021/05/24 07:02:40;;;;;;;14.18;2.97;;;;;;;19.29;67.94;95800.03;5065909;28;20052;-68
2021/05/24 07:05:07;;;;;;;15.98;3.60;;;;;;;19.18;68.22;95802.94;5065824;28;20403;-68
2021/05/24 07:07:35;;;;;;;4.65;2.10;;;;;;;19.04;67.48;95792.09;5048711;28;20151;-68
2021/05/24 07:10:05;;;;;;;10.27;2.35;;;;;;;19.07;67.54;95778.38;5049216;28;20048;-68
2021/05/24 07:12:32;;;;;;;35.15;4.60;;;;;;;19.20;67.38;95787.63;5066088;28;20407;-68
2021/05/24 07:14:59;;;;;;;12.75;2.60;;;;;;;19.18;67.89;95782.59;5048792;28;20492;-66
2021/05/24 07:17:26;;;;;;;9.45;2.42;;;;;;;19.37;68.91;95795.31;5065997;28;20139;-67
2021/05/24 07:19:53;;;;;;;10.85;2.83;;;;;;;19.50;66.80;95797.44;5063800;28;20079;-67
2021/05/24 07:22:20;;;;;;;9.38;3.35;;;;;;;19.55;65.34;95792.13;5046544;28;20122;-68
2021/05/24 07:24:46;;;;;;;7.95;2.50;;;;;;;19.65;66.21;95789.50;5064470;28;20048;-68
2021/05/24 07:27:13;;;;;;;11.25;2.67;;;;;;;19.90;65.33;95792.41;5062574;28;20110;-67
2021/05/24 07:29:40;;;;;;;4.93;2.47;;;;;;;19.92;63.38;95791.09;5045885;28;20044;-67
2021/05/24 07:32:11;;;;;;;10.80;3.03;;;;;;;19.97;63.92;95792.94;5064653;28;20080;-67
2021/05/24 07:34:38;;;;;;;9.95;3.35;;;;;;;20.13;62.50;95796.34;5064724;28;20458;-67
2021/05/24 07:37:07;;;;;;;7.03;1.95;;;;;;;20.29;62.37;95800.53;5060837;28;20076;-67
2021/05/24 07:39:34;;;;;;;5.38;1.92;;;;;;;20.47;61.12;95806.31;5065178;28;20459;-68
2021/05/24 07:42:03;;;;;;;8.02;2.25;;;;;;;20.33;60.75;95806.91;5063664;28;20056;-68
2021/05/24 07:44:32;;;;;;;3.38;1.60;;;;;;;20.34;60.44;95802.38;5065951;28;20097;-68
2021/05/24 07:47:00;;;;;;;4.53;2.00;;;;;;;20.40;60.10;95812.69;5064933;28;20227;-67
2021/05/24 07:49:28;;;;;;;9.23;2.50;;;;;;;20.59;62.43;95804.94;5064237;28;20044;-68
2021/05/24 07:51:55;;;;;;;7.82;2.78;;;;;;;20.83;61.52;95803.56;5062358;28;20048;-67
2021/05/24 07:54:22;;;;;;;5.13;1.95;;;;;;;20.95;61.67;95796.09;5062484;28;20041;-66
2021/05/24 07:56:50;;;;;;;8.05;2.40;;;;;;;21.03;60.28;95792.88;5046309;28;20056;-67
2021/05/24 07:59:17;;;;;;;5.53;2.20;;;;;;;21.06;59.84;95789.66;5063720;28;20068;-67
2021/05/24 08:01:45;;;;;;;13.82;4.00;;;;;;;21.16;60.57;95786.97;5030327;28;20070;-67
2021/05/24 08:04:11;;;;;;;9.68;2.25;;;;;;;21.22;59.29;95795.66;5047538;28;20037;-67
2021/05/24 08:06:39;;;;;;;8.23;2.60;;;;;;;21.22;59.24;95789.59;5063926;28;20046;-67
2021/05/24 08:09:06;;;;;;;13.40;3.00;;;;;;;21.38;59.58;95788.41;5029958;28;20064;-67
2021/05/24 08:11:34;;;;;;;7.25;1.75;;;;;;;21.43;57.03;95791.03;5063866;28;22029;-68
2021/05/24 08:14:02;;;;;;;13.07;2.40;;;;;;;21.50;56.94;95788.88;5046802;28;20056;-67
2021/05/24 08:16:33;;;;;;;5.65;2.63;;;;;;;21.65;57.13;95781.88;5046237;28;20052;-68
2021/05/24 08:19:03;;;;;;;13.95;2.35;;;;;;;21.85;56.40;95787.00;5063735;28;20123;-68
2021/05/24 08:21:32;;;;;;;16.20;3.55;;;;;;;21.87;56.34;95776.13;5061643;28;20048;-66
2021/05/24 08:24:03;;;;;;;19.95;2.90;;;;;;;22.08;55.77;95779.38;5045868;28;20051;-67
2021/05/24 08:26:30;;;;;;;15.02;3.63;;;;;;;22.43;57.46;95780.09;5063189;28;20143;-67
2021/05/24 08:28:57;;;;;;;24.27;3.05;;;;;;;22.70;54.61;95780.28;5045086;28;20119;-67
2021/05/24 08:31:24;;;;;;;13.18;2.20;;;;;;;22.65;53.52;95785.69;5062144;28;20509;-67
2021/05/24 08:33:52;;;;;;;9.20;2.20;;;;;;;22.79;53.69;95782.31;5063191;28;20109;-67
2021/05/24 08:36:19;;;;;;;10.45;2.10;;;;;;;23.03;52.93;95788.38;5060256;28;20032;-68
2021/05/24 08:38:46;;;;;;;12.75;2.50;;;;;;;23.28;52.17;95778.47;5063777;28;20071;-68
2021/05/24 08:41:15;;;;;;;13.88;2.75;;;;;;;23.29;52.73;95774.75;5064689;28;20044;-68
2021/05/24 08:43:43;;;;;;;24.33;2.85;;;;;;;23.39;51.86;95779.91;5029886;28;20131;-69
2021/05/24 08:46:11;;;;;;;13.63;3.10;;;;;;;23.42;51.35;95779.31;5029543;28;20052;-67
2021/05/24 08:48:38;;;;;;;15.80;2.95;;;;;;;23.52;50.84;95772.28;5045257;28;20056;-68
2021/05/24 08:51:09;;;;;;;8.40;2.90;;;;;;;23.66;50.47;95757.94;5044567;28;20069;-68
2021/05/24 08:53:37;;;;;;;10.15;2.83;;;;;;;23.69;49.70;95769.84;5044770;28;20048;-67
2021/05/24 08:56:06;;;;;;;15.50;2.90;;;;;;;23.52;48.93;95748.34;5064651;28;20081;-67
2021/05/24 08:58:34;;;;;;;7.45;1.70;;;;;;;23.53;51.12;95742.72;5044929;28;20098;-66
2021/05/24 09:01:02;;;;;;;8.00;2.10;;;;;;;24.07;48.61;95740.50;5045539;28;20049;-67
2021/05/24 09:03:33;;;;;;;19.30;3.30;;;;;;;24.10;47.59;95745.25;5045075;28;20502;-67
2021/05/24 09:06:07;;;;;;;7.63;1.80;;;;;;;24.35;46.95;95740.53;5044756;28;20033;-67
2021/05/24 09:08:40;;;;;;;14.52;2.08;;;;;;;24.39;46.45;95738.84;5063048;28;20056;-68
2021/05/24 09:11:27;;;;;;;11.50;2.20;;;;;;;24.51;47.10;95744.44;5062365;28;20127;-66
2021/05/24 09:13:54;;;;;;;8.27;2.05;;;;;;;24.82;45.28;95732.41;5045943;28;20053;-68
2021/05/24 09:16:33;;;;;;;9.93;1.88;;;;;;;25.11;43.98;95724.03;5062584;28;20044;-67
2021/05/24 09:19:31;;;;;;;9.15;2.28;;;;;;;25.03;45.87;95716.72;5062249;28;20052;-67
2021/05/24 09:22:04;;;;;;;6.25;2.78;;;;;;;25.25;44.08;95718.69;5060945;28;20052;-68
2021/05/24 09:24:39;;;;;;;14.40;2.65;;;;;;;25.34;43.53;95714.97;5046992;28;20048;-68
2021/05/24 09:27:21;;;;;;;6.20;2.42;;;;;;;25.41;42.86;95711.06;5044266;28;20036;-66
2021/05/24 09:29:48;;;;;;;9.48;1.65;;;;;;;25.36;44.50;95688.00;5061827;28;20052;-68
2021/05/24 09:32:18;;;;;;;4.50;1.60;;;;;;;25.57;44.20;95704.28;5046865;28;20531;-67
2021/05/24 09:34:48;;;;;;;8.88;1.92;;;;;;;25.61;44.86;95704.47;5047035;28;20056;-67
2021/05/24 09:37:16;;;;;;;12.00;3.05;;;;;;;25.89;43.57;95713.06;5059865;28;20115;-67
2021/05/24 09:39:44;;;;;;;7.20;1.63;;;;;;;26.08;41.59;95702.97;5045547;28;20041;-67
2021/05/24 09:42:14;;;;;;;7.47;1.55;;;;;;;26.23;41.10;95709.00;5061515;28;20032;-67
2021/05/24 09:44:53;;;;;;;7.38;1.83;;;;;;;26.54;39.97;95716.13;5026466;28;20048;-68
2021/05/24 09:47:38;;;;;;;8.65;1.75;;;;;;;26.58;39.57;95719.75;5044739;28;20048;-68
2021/05/24 09:50:15;;;;;;;9.65;2.60;;;;;;;26.85;38.41;95708.03;5057512;28;20059;-68
2021/05/24 09:52:44;;;;;;;5.85;1.92;;;;;;;26.98;37.14;95706.31;5046276;28;20046;-68
2021/05/24 09:55:22;;;;;;;7.05;1.52;;;;;;;27.08;37.11;95711.31;5046020;28;20124;-68
2021/05/24 09:58:00;;;;;;;6.68;2.30;;;;;;;27.28;38.80;95707.28;5063269;28;20521;-68
2021/05/24 10:00:39;;;;;;;10.93;1.70;;;;;;;27.27;37.34;95703.03;5054230;28;20050;-67
2021/05/24 10:03:08;;;;;;;6.00;1.85;;;;;;;27.31;37.83;95698.59;5043901;28;20086;-67
2021/05/24 10:05:48;;;;;;;4.03;1.60;;;;;;;27.49;36.86;95699.34;5058069;28;20040;-67
2021/05/24 10:08:15;;;;;;;8.73;2.20;;;;;;;27.48;36.65;95703.16;5043008;28;20136;-68
2021/05/24 10:10:43;;;;;;;5.35;2.15;;;;;;;27.84;36.39;95693.94;5045081;28;20414;-68
2021/05/24 10:13:10;;;;;;;7.15;1.88;;;;;;;28.40;34.68;95691.94;5064615;28;20087;-68
2021/05/24 10:15:38;;;;;;;9.02;1.50;;;;;;;28.67;34.51;95692.59;5062734;28;20048;-67
2021/05/24 10:18:06;;;;;;;8.32;1.70;;;;;;;28.79;34.09;95681.97;5064795;28;20037;-67
2021/05/24 10:20:34;;;;;;;5.28;1.73;;;;;;;29.02;33.90;95681.59;5060955;28;20509;-67
2021/05/24 10:23:01;;;;;;;9.05;1.60;;;;;;;28.82;34.43;95687.78;5064585;28;20109;-67
2021/05/24 10:25:28;;;;;;;12.93;1.90;;;;;;;28.57;34.46;95679.59;5070021;28;20040;-66
2021/05/24 10:27:59;;;;;;;13.38;2.67;;;;;;;28.34;34.92;95685.22;5065587;28;20395;-66
2021/05/24 10:30:27;;;;;;;11.82;2.00;;;;;;;27.82;36.61;95678.19;5058782;28;20498;-66
2021/05/24 10:32:59;;;;;;;13.52;1.55;;;;;;;27.91;36.28;95678.19;5067012;28;20052;-66
2021/05/24 10:35:35;;;;;;;6.75;1.90;;;;;;;27.88;35.41;95678.78;5070238;28;20047;-65
2021/05/24 10:38:31;;;;;;;5.80;1.73;;;;;;;28.08;35.62;95681.88;5068734;28;20036;-66
2021/05/24 10:41:08;;;;;;;6.35;1.60;;;;;;;27.89;35.84;95680.34;5067216;28;20460;-65
2021/05/24 10:43:45;;;;;;;6.55;1.80;;;;;;;27.94;34.67;95688.22;5067366;28;20036;-66
2021/05/24 10:46:24;;;;;;;14.10;2.65;;;;;;;28.22;35.02;95682.44;5069868;28;20050;-65
2021/05/24 10:49:03;;;;;;;10.02;1.77;;;;;;;28.49;35.55;95675.06;5069758;28;20045;-66
2021/05/24 10:51:45;;;;;;;5.70;1.95;;;;;;;28.97;33.73;95679.13;5066883;28;20036;-65
2021/05/24 10:54:21;;;;;;;7.20;1.60;;;;;;;29.32;33.48;95673.50;5067594;28;20116;-66
2021/05/24 10:57:00;;;;;;;8.90;2.97;;;;;;;29.51;32.42;95673.75;5070094;28;20131;-66
2021/05/24 10:59:43;;;;;;;7.35;2.15;;;;;;;29.93;31.67;95676.31;5065943;28;20102;-66
2021/05/24 11:02:26;;;;;;;15.98;2.25;;;;;;;29.62;33.29;95665.28;5067248;28;20043;-66
2021/05/24 11:05:00;;;;;;;12.65;1.80;;;;;;;29.65;31.23;95664.59;5060449;28;20803;-66
2021/05/24 11:07:51;;;;;;;15.80;2.85;;;;;;;29.38;31.75;95666.78;5066285;28;20087;-66
2021/05/24 11:10:20;;;;;;;9.10;2.17;;;;;;;29.60;31.96;95662.13;5067880;28;20143;-67
2021/05/24 11:12:50;;;;;;;9.48;1.83;;;;;;;29.19;32.23;95669.97;5067755;28;20063;-66
2021/05/24 11:15:20;;;;;;;16.40;2.55;;;;;;;29.25;31.93;95665.19;5068877;28;20040;-66
2021/05/24 11:18:02;;;;;;;13.48;2.47;;;;;;;29.06;32.88;95666.41;5068389;28;20038;-67
2021/05/24 11:20:33;;;;;;;6.30;1.80;;;;;;;28.77;33.08;95654.69;5065991;28;20047;-66
2021/05/24 11:28:35;;;;;;;39.92;20.63;;;;;;;29.36;32.45;95663.66;5062926;28;20508;-67
2021/05/24 11:31:14;;;;;;;15.05;6.85;;;;;;;29.11;32.70;95652.81;5068529;28;20041;-67
2021/05/24 11:33:50;;;;;;;880.70;232.73;;;;;;;29.49;33.61;95659.88;5066977;28;20063;-67
2021/05/24 11:36:40;;;;;;;1999.90;999.90;;;;;;;30.12;32.50;95648.09;5067521;28;20054;-67
2021/05/24 11:39:32;;;;;;;124.22;73.25;;;;;;;30.40;30.68;95644.75;5056175;28;20062;-67
2021/05/24 11:42:04;;;;;;;50.35;34.75;;;;;;;30.46;32.47;95643.41;5063018;28;20041;-67
2021/05/24 11:44:41;;;;;;;13.13;2.40;;;;;;;30.47;30.60;95639.59;5068279;28;20408;-67
2021/05/24 11:47:14;;;;;;;19.33;3.17;;;;;;;30.95;30.79;95640.56;5068159;28;20474;-67